Belle Chasse — WDG2912 — position and weather

sailwx.info

Track history (hours):
 
Tides and Currents Weather Stations Pressure Air Temp Water Temp Dewpoint Dewpoint Depression Visibility Wind Speed Wind Dir Waves Ship Positions

Belle Chasse

Owner: Higman Barge Lines, Inc, Orange, TX. More information available from US FCC via Universal Licensing System and Coast Guard Vessel Documentation Center.

Last reported at 2017-Aug-18 13:30 UTC. Time now 2017-Aug-18 23:37 UTC.
Position N 30°03' W 093°44'.

Length 26 m; draft 3 m.

Type: Towing. MMSI: 367520550.

Date/timePositionNaut miles runAvg speedWind from/ knotsBaromVisibWave heightAir tempDewpointWater temp
2017-Aug-18 13:30N 30°03' W 093°44'2 4.7
2017-Aug-18 13:00N 30°04' W 093°41'3 5.1
2017-Aug-18 12:30N 30°04' W 093°38'2 4.9
2017-Aug-18 12:00N 30°04' W 093°35'2 4.9
2017-Aug-18 11:30N 30°04' W 093°33'2 4.6
2017-Aug-18 11:00N 30°04' W 093°30'2 4.2
2017-Aug-18 10:30N 30°04' W 093°27'2 3.4
2017-Aug-18 10:00N 30°04' W 093°25'2 4.1
2017-Aug-18 09:30N 30°04' W 093°23'2 3.9
2017-Aug-18 09:00N 30°04' W 093°21'2 3.7
2017-Aug-18 08:30N 30°05' W 093°20'1 3.0
2017-Aug-18 08:00N 30°05' W 093°18'1 3.0
2017-Aug-18 07:31N 30°05' W 093°17'2 3.9
2017-Aug-18 07:01N 30°03' W 093°16'2 4.2
2017-Aug-18 06:30N 30°01' W 093°14'2 3.5
2017-Aug-18 05:59N 29°60' W 093°13'0 0.8
2017-Aug-18 05:30N 29°59' W 093°13'2 4.7
2017-Aug-18 05:00N 29°58' W 093°11'2 4.8
2017-Aug-18 04:30N 29°56' W 093°09'2 4.7
2017-Aug-18 04:00N 29°56' W 093°06'2 4.2
2017-Aug-18 03:30N 29°56' W 093°04'35 4.9
2017-Aug-17 20:29N 29°53' W 092°24'3 4.3
2017-Aug-17 19:45N 29°51' W 092°21'1 3.9
2017-Aug-17 19:30N 29°51' W 092°20'2 4.1
2017-Aug-17 19:00N 29°50' W 092°18'2 3.6
2017-Aug-17 18:30N 29°49' W 092°17'2 4.8
2017-Aug-17 18:00N 29°48' W 092°14'2 3.7
2017-Aug-17 17:30N 29°47' W 092°12'1 2.0
2017-Aug-17 17:00N 29°47' W 092°11'1 1.2
2017-Aug-17 16:30N 29°46' W 092°10'0 0.6
2017-Aug-17 16:00N 29°47' W 092°10'1 1.0
2017-Aug-17 15:30N 29°47' W 092°10'1 1.7
2017-Aug-17 15:00N 29°47' W 092°09'2 4.4
2017-Aug-17 14:30N 29°48' W 092°06'3 5.4
2017-Aug-17 14:00N 29°49' W 092°03'3 5.4
2017-Aug-17 13:30N 29°50' W 092°00'56 4.0
2017-Aug-16 23:45N 29°36' W 090°58'2 5.1
2017-Aug-16 23:27N 29°35' W 090°57'3 5.2
2017-Aug-16 22:57N 29°33' W 090°55'2 4.9
2017-Aug-16 22:28N 29°32' W 090°52'2 5.1
2017-Aug-16 22:01N 29°32' W 090°50'3 5.1
2017-Aug-16 21:31N 29°32' W 090°47'2 4.2
2017-Aug-16 21:01N 29°34' W 090°45'2 3.5
2017-Aug-16 20:30N 29°34' W 090°43'1 2.3
2017-Aug-16 20:01N 29°35' W 090°43'2 3.0
2017-Aug-16 19:30N 29°37' W 090°42'2 4.4
2017-Aug-16 19:00N 29°36' W 090°40'2 4.6
2017-Aug-16 18:30N 29°35' W 090°38'2 3.9
2017-Aug-16 18:00N 29°35' W 090°35'2 3.7
2017-Aug-16 17:30N 29°34' W 090°33'2 4.6
2017-Aug-16 17:00N 29°34' W 090°31'4 4.6
2017-Aug-16 16:08N 29°33' W 090°26'  
2017-Aug-13 08:51N 29°33' W 090°26'2 5.7
2017-Aug-13 08:31N 29°33' W 090°28'3 5.6
2017-Aug-13 08:01N 29°34' W 090°31'3 5.3
2017-Aug-13 07:30N 29°34' W 090°34'2 4.5
2017-Aug-13 07:01N 29°35' W 090°37'2 4.9
2017-Aug-13 06:31N 29°36' W 090°39'2 4.3
2017-Aug-13 06:00N 29°37' W 090°42'1 2.7
2017-Aug-13 05:31N 29°36' W 090°43'2 3.4
2017-Aug-13 05:01N 29°34' W 090°43'2 4.2
2017-Aug-13 04:31N 29°33' W 090°45'3 6.0
2017-Aug-13 04:00N 29°32' W 090°49'3 5.8
2017-Aug-13 03:30N 29°32' W 090°52'3 5.7
2017-Aug-13 02:58N 29°33' W 090°55'3 5.5
2017-Aug-13 02:30N 29°35' W 090°58'3 5.4
2017-Aug-13 01:58N 29°37' W 090°60'47 4.1
2017-Aug-12 14:38N 29°51' W 091°51'1 5.3
2017-Aug-12 14:25N 29°51' W 091°53'2 5.2
2017-Aug-12 13:59N 29°51' W 091°55'2 5.2
2017-Aug-12 13:30N 29°50' W 091°58'3 5.4
2017-Aug-12 13:00N 29°49' W 092°01'3 5.3
2017-Aug-12 12:30N 29°48' W 092°04'3 5.4
2017-Aug-12 12:00N 29°48' W 092°07'3 5.4
2017-Aug-12 11:30N 29°47' W 092°10'2 4.2
2017-Aug-12 11:00N 29°47' W 092°12'3 5.4
2017-Aug-12 10:30N 29°48' W 092°15'3 5.1
2017-Aug-12 10:00N 29°49' W 092°18'2 4.3
2017-Aug-12 09:30N 29°50' W 092°20'3 4.4
2017-Aug-12 08:49N 29°52' W 092°22'2 4.9
2017-Aug-12 08:30N 29°53' W 092°24'32 3.8
2017-Aug-11 23:51N 29°56' W 093°01'2 5.4
2017-Aug-11 23:30N 29°56' W 093°03'3 5.1
2017-Aug-11 23:00N 29°56' W 093°06'3 5.5
2017-Aug-11 22:30N 29°56' W 093°09'3 5.2
2017-Aug-11 22:00N 29°58' W 093°11'2 4.9
2017-Aug-11 21:30N 29°60' W 093°13'2 4.1
2017-Aug-11 21:00N 30°02' W 093°14'1 2.2
2017-Aug-11 20:29N 30°02' W 093°16'2 3.2
2017-Aug-11 20:00N 30°04' W 093°16'1 2.8
2017-Aug-11 19:30N 30°05' W 093°17'1 2.4
2017-Aug-11 19:00N 30°06' W 093°18'1 1.4
2017-Aug-11 18:30N 30°06' W 093°19'0 0.6
2017-Aug-11 18:00N 30°06' W 093°19'0 0.0
2017-Aug-11 17:30N 30°06' W 093°19'0 0.0
2017-Aug-11 17:00N 30°06' W 093°19'0 0.0
2017-Aug-11 16:30N 30°06' W 093°19'0 0.0
2017-Aug-11 16:01N 30°06' W 093°19'0 0.3
2017-Aug-11 15:30N 30°06' W 093°19'0 0.0
2017-Aug-11 14:57N 30°06' W 093°19'0 0.1
2017-Aug-11 14:31N 30°06' W 093°19'3 3.0
2017-Aug-11 13:30N 30°09' W 093°20'2 4.5
2017-Aug-11 13:00N 30°11' W 093°19'2 5.0
2017-Aug-11 12:30N 30°12' W 093°16'2 3.3
2017-Aug-11 12:00N 30°14' W 093°16'0 0.1
2017-Aug-11 11:30N 30°14' W 093°15'0 0.0
2017-Aug-11 11:00N 30°14' W 093°15'0 0.0
2017-Aug-11 10:26N 30°14' W 093°15'0 0.0
2017-Aug-11 10:00N 30°14' W 093°15'0 0.0
2017-Aug-11 09:26N 30°14' W 093°15'0 0.0
2017-Aug-11 09:00N 30°14' W 093°15'0 0.0
2017-Aug-11 08:27N 30°14' W 093°15'0 0.0
2017-Aug-11 08:00N 30°14' W 093°15'0 0.0
2017-Aug-11 07:20N 30°14' W 093°15'0 0.0
2017-Aug-11 06:59N 30°14' W 093°15'0 0.0
2017-Aug-11 06:27N 30°14' W 093°15'0 0.0
2017-Aug-11 05:59N 30°14' W 093°15'0 0.0
2017-Aug-11 05:29N 30°14' W 093°15'0 0.0
2017-Aug-11 04:56N 30°14' W 093°15'0 0.0
2017-Aug-11 04:29N 30°14' W 093°15'0 0.0
2017-Aug-11 03:57N 30°14' W 093°15'0 0.0
2017-Aug-11 03:26N 30°14' W 093°15'0 0.0
2017-Aug-11 02:56N 30°14' W 093°15'0 0.0
2017-Aug-11 02:26N 30°14' W 093°15'0 0.0
2017-Aug-11 01:59N 30°14' W 093°15'0 0.0
2017-Aug-11 01:26N 30°14' W 093°15'0 0.0
2017-Aug-11 00:59N 30°14' W 093°15'0 0.0
2017-Aug-11 00:27N 30°14' W 093°15'0 0.0
2017-Aug-10 23:59N 30°14' W 093°15'0 0.0
2017-Aug-10 23:26N 30°14' W 093°15'0 0.0
2017-Aug-10 22:53N 30°14' W 093°15'0 0.0
2017-Aug-10 22:27N 30°14' W 093°15'0 0.0
2017-Aug-10 21:59N 30°14' W 093°15'0 0.0
2017-Aug-10 21:29N 30°14' W 093°15'0 0.0
2017-Aug-10 20:56N 30°14' W 093°15'0 0.0
2017-Aug-10 20:26N 30°14' W 093°15'0 0.0
2017-Aug-10 19:56N 30°14' W 093°15'0 0.0
2017-Aug-10 19:26N 30°14' W 093°15'0 0.0
2017-Aug-10 18:56N 30°14' W 093°15'0 0.0
2017-Aug-10 18:26N 30°14' W 093°15'0 0.0
2017-Aug-10 17:56N 30°14' W 093°15'0 0.0
2017-Aug-10 17:14N 30°14' W 093°15'0 0.0
2017-Aug-10 16:56N 30°14' W 093°15'0 0.0
2017-Aug-10 16:26N 30°14' W 093°15'0 0.0
2017-Aug-10 15:59N 30°14' W 093°15'0 0.0
2017-Aug-10 15:26N 30°14' W 093°15'0 0.0
2017-Aug-10 14:56N 30°14' W 093°15'0 0.0
2017-Aug-10 14:20N 30°14' W 093°15'0 0.0
2017-Aug-10 13:56N 30°14' W 093°15'0 0.0
2017-Aug-10 13:29N 30°14' W 093°15'0 0.0
2017-Aug-10 12:56N 30°14' W 093°15'0 0.0
2017-Aug-10 12:29N 30°14' W 093°15'0 0.0
2017-Aug-10 11:59N 30°14' W 093°15'0 0.0
2017-Aug-10 11:26N 30°14' W 093°15'0 0.0
2017-Aug-10 10:56N 30°14' W 093°15'0 0.0
2017-Aug-10 10:29N 30°14' W 093°15'0 0.0
2017-Aug-10 09:56N 30°14' W 093°15'0 0.0
2017-Aug-10 09:29N 30°14' W 093°16'0 0.0
2017-Aug-10 08:56N 30°14' W 093°15'0 0.0
2017-Aug-10 08:26N 30°14' W 093°15'0 0.0
2017-Aug-10 07:59N 30°14' W 093°15'0 0.0
2017-Aug-10 07:11N 30°14' W 093°15'0 0.0
2017-Aug-10 06:56N 30°14' W 093°15'0 0.0
2017-Aug-10 06:20N 30°14' W 093°15'0 0.0
2017-Aug-10 05:56N 30°14' W 093°15'0 0.0
2017-Aug-10 05:23N 30°14' W 093°15'0 0.0
2017-Aug-10 04:59N 30°14' W 093°15'0 0.0
2017-Aug-10 04:29N 30°14' W 093°15'0 0.0
2017-Aug-10 03:59N 30°14' W 093°15'0 0.0
2017-Aug-10 03:29N 30°14' W 093°15'0 0.8
2017-Aug-10 02:59N 30°14' W 093°16'0 0.4
2017-Aug-10 02:29N 30°13' W 093°16'0 0.0
2017-Aug-10 01:59N 30°13' W 093°16'0 0.0
2017-Aug-10 01:29N 30°13' W 093°16'0 0.0
2017-Aug-10 00:59N 30°13' W 093°16'0 0.0
2017-Aug-10 00:29N 30°13' W 093°16'0 0.0
2017-Aug-09 23:59N 30°13' W 093°16'0 0.0
2017-Aug-09 23:29N 30°13' W 093°16'0 0.0
2017-Aug-09 22:59N 30°13' W 093°16'0 0.0
2017-Aug-09 22:29N 30°13' W 093°16'0 0.0
2017-Aug-09 21:59N 30°13' W 093°16'0 0.0
2017-Aug-09 21:29N 30°13' W 093°16'0 0.0
2017-Aug-09 20:59N 30°13' W 093°16'0 0.0
2017-Aug-09 20:29N 30°13' W 093°16'0 0.0
2017-Aug-09 19:59N 30°13' W 093°16'0 0.0
2017-Aug-09 19:29N 30°13' W 093°16'0 0.0
2017-Aug-09 18:59N 30°13' W 093°16'0 0.0
2017-Aug-09 18:29N 30°13' W 093°16'0 0.0
2017-Aug-09 17:59N 30°13' W 093°16'0 0.0
2017-Aug-09 17:29N 30°13' W 093°16'0 0.2
2017-Aug-09 16:56N 30°13' W 093°16'1 1.3
2017-Aug-09 16:30N 30°14' W 093°15'1 3.0
2017-Aug-09 16:00N 30°12' W 093°16'2 3.1
2017-Aug-09 15:29N 30°12' W 093°18'0 0.3
2017-Aug-09 14:59N 30°12' W 093°18'1 2.9
2017-Aug-09 14:30N 30°11' W 093°19'3 5.8
2017-Aug-09 14:00N 30°08' W 093°20'3 5.6
2017-Aug-09 13:30N 30°05' W 093°20'2 3.7
2017-Aug-09 13:00N 30°04' W 093°21'2 3.4
2017-Aug-09 12:30N 30°04' W 093°23'2 4.2
2017-Aug-09 12:00N 30°04' W 093°26'2 3.4
2017-Aug-09 11:29N 30°04' W 093°28'2 4.6
2017-Aug-09 11:00N 30°04' W 093°30'2 4.3
2017-Aug-09 10:30N 30°04' W 093°33'2 4.6
2017-Aug-09 10:00N 30°04' W 093°35'2 4.4
2017-Aug-09 09:30N 30°04' W 093°38'2 4.2
2017-Aug-09 08:58N 30°04' W 093°40'2 4.2
2017-Aug-09 08:30N 30°03' W 093°43'69 3.8
2017-Aug-08 14:31N 29°28' W 094°51'1 6.9
2017-Aug-08 14:20N 29°29' W 094°52'2 7.0
2017-Aug-08 14:00N 29°31' W 094°53'  
Track history (hours):
 
Tides and Currents Weather Stations Pressure Air Temp Water Temp Dewpoint Dewpoint Depression Visibility Wind Speed Wind Dir Waves Ship Positions

Belle Chasse

Owner: Higman Barge Lines, Inc, Orange, TX. More information available from US FCC via Universal Licensing System and Coast Guard Vessel Documentation Center.

Last reported at 2017-Aug-18 13:30 UTC. Time now 2017-Aug-18 23:37 UTC.
Position N 30°03' W 093°44'.

Length 26 m; draft 3 m.

Type: Towing. MMSI: 367520550.

Date/timePositionNaut miles runAvg speedWind from/ knotsBaromVisibWave heightAir tempDewpointWater temp
2017-Aug-18 13:30N 30°03' W 093°44'2 4.7
2017-Aug-18 13:00N 30°04' W 093°41'3 5.1
2017-Aug-18 12:30N 30°04' W 093°38'2 4.9
2017-Aug-18 12:00N 30°04' W 093°35'2 4.9
2017-Aug-18 11:30N 30°04' W 093°33'2 4.6
2017-Aug-18 11:00N 30°04' W 093°30'2 4.2
2017-Aug-18 10:30N 30°04' W 093°27'2 3.4
2017-Aug-18 10:00N 30°04' W 093°25'2 4.1
2017-Aug-18 09:30N 30°04' W 093°23'2 3.9
2017-Aug-18 09:00N 30°04' W 093°21'2 3.7
2017-Aug-18 08:30N 30°05' W 093°20'1 3.0
2017-Aug-18 08:00N 30°05' W 093°18'1 3.0
2017-Aug-18 07:31N 30°05' W 093°17'2 3.9
2017-Aug-18 07:01N 30°03' W 093°16'2 4.2
2017-Aug-18 06:30N 30°01' W 093°14'2 3.5
2017-Aug-18 05:59N 29°60' W 093°13'0 0.8
2017-Aug-18 05:30N 29°59' W 093°13'2 4.7
2017-Aug-18 05:00N 29°58' W 093°11'2 4.8
2017-Aug-18 04:30N 29°56' W 093°09'2 4.7
2017-Aug-18 04:00N 29°56' W 093°06'2 4.2
2017-Aug-18 03:30N 29°56' W 093°04'35 4.9
2017-Aug-17 20:29N 29°53' W 092°24'3 4.3
2017-Aug-17 19:45N 29°51' W 092°21'1 3.9
2017-Aug-17 19:30N 29°51' W 092°20'2 4.1
2017-Aug-17 19:00N 29°50' W 092°18'2 3.6
2017-Aug-17 18:30N 29°49' W 092°17'2 4.8
2017-Aug-17 18:00N 29°48' W 092°14'2 3.7
2017-Aug-17 17:30N 29°47' W 092°12'1 2.0
2017-Aug-17 17:00N 29°47' W 092°11'1 1.2
2017-Aug-17 16:30N 29°46' W 092°10'0 0.6
2017-Aug-17 16:00N 29°47' W 092°10'1 1.0
2017-Aug-17 15:30N 29°47' W 092°10'1 1.7
2017-Aug-17 15:00N 29°47' W 092°09'2 4.4
2017-Aug-17 14:30N 29°48' W 092°06'3 5.4
2017-Aug-17 14:00N 29°49' W 092°03'3 5.4
2017-Aug-17 13:30N 29°50' W 092°00'56 4.0
2017-Aug-16 23:45N 29°36' W 090°58'2 5.1
2017-Aug-16 23:27N 29°35' W 090°57'3 5.2
2017-Aug-16 22:57N 29°33' W 090°55'2 4.9
2017-Aug-16 22:28N 29°32' W 090°52'2 5.1
2017-Aug-16 22:01N 29°32' W 090°50'3 5.1
2017-Aug-16 21:31N 29°32' W 090°47'2 4.2
2017-Aug-16 21:01N 29°34' W 090°45'2 3.5
2017-Aug-16 20:30N 29°34' W 090°43'1 2.3
2017-Aug-16 20:01N 29°35' W 090°43'2 3.0
2017-Aug-16 19:30N 29°37' W 090°42'2 4.4
2017-Aug-16 19:00N 29°36' W 090°40'2 4.6
2017-Aug-16 18:30N 29°35' W 090°38'2 3.9
2017-Aug-16 18:00N 29°35' W 090°35'2 3.7
2017-Aug-16 17:30N 29°34' W 090°33'2 4.6
2017-Aug-16 17:00N 29°34' W 090°31'4 4.6
2017-Aug-16 16:08N 29°33' W 090°26'  
2017-Aug-13 08:51N 29°33' W 090°26'2 5.7
2017-Aug-13 08:31N 29°33' W 090°28'3 5.6
2017-Aug-13 08:01N 29°34' W 090°31'3 5.3
2017-Aug-13 07:30N 29°34' W 090°34'2 4.5
2017-Aug-13 07:01N 29°35' W 090°37'2 4.9
2017-Aug-13 06:31N 29°36' W 090°39'2 4.3
2017-Aug-13 06:00N 29°37' W 090°42'1 2.7
2017-Aug-13 05:31N 29°36' W 090°43'2 3.4
2017-Aug-13 05:01N 29°34' W 090°43'2 4.2
2017-Aug-13 04:31N 29°33' W 090°45'3 6.0
2017-Aug-13 04:00N 29°32' W 090°49'3 5.8
2017-Aug-13 03:30N 29°32' W 090°52'3 5.7
2017-Aug-13 02:58N 29°33' W 090°55'3 5.5
2017-Aug-13 02:30N 29°35' W 090°58'3 5.4
2017-Aug-13 01:58N 29°37' W 090°60'47 4.1
2017-Aug-12 14:38N 29°51' W 091°51'1 5.3
2017-Aug-12 14:25N 29°51' W 091°53'2 5.2
2017-Aug-12 13:59N 29°51' W 091°55'2 5.2
2017-Aug-12 13:30N 29°50' W 091°58'3 5.4
2017-Aug-12 13:00N 29°49' W 092°01'3 5.3
2017-Aug-12 12:30N 29°48' W 092°04'3 5.4
2017-Aug-12 12:00N 29°48' W 092°07'3 5.4
2017-Aug-12 11:30N 29°47' W 092°10'2 4.2
2017-Aug-12 11:00N 29°47' W 092°12'3 5.4
2017-Aug-12 10:30N 29°48' W 092°15'3 5.1
2017-Aug-12 10:00N 29°49' W 092°18'2 4.3
2017-Aug-12 09:30N 29°50' W 092°20'3 4.4
2017-Aug-12 08:49N 29°52' W 092°22'2 4.9
2017-Aug-12 08:30N 29°53' W 092°24'32 3.8
2017-Aug-11 23:51N 29°56' W 093°01'2 5.4
2017-Aug-11 23:30N 29°56' W 093°03'3 5.1
2017-Aug-11 23:00N 29°56' W 093°06'3 5.5
2017-Aug-11 22:30N 29°56' W 093°09'3 5.2
2017-Aug-11 22:00N 29°58' W 093°11'2 4.9
2017-Aug-11 21:30N 29°60' W 093°13'2 4.1
2017-Aug-11 21:00N 30°02' W 093°14'1 2.2
2017-Aug-11 20:29N 30°02' W 093°16'2 3.2
2017-Aug-11 20:00N 30°04' W 093°16'1 2.8
2017-Aug-11 19:30N 30°05' W 093°17'1 2.4
2017-Aug-11 19:00N 30°06' W 093°18'1 1.4
2017-Aug-11 18:30N 30°06' W 093°19'0 0.6
2017-Aug-11 18:00N 30°06' W 093°19'0 0.0
2017-Aug-11 17:30N 30°06' W 093°19'0 0.0
2017-Aug-11 17:00N 30°06' W 093°19'0 0.0
2017-Aug-11 16:30N 30°06' W 093°19'0 0.0
2017-Aug-11 16:01N 30°06' W 093°19'0 0.3
2017-Aug-11 15:30N 30°06' W 093°19'0 0.0
2017-Aug-11 14:57N 30°06' W 093°19'0 0.1
2017-Aug-11 14:31N 30°06' W 093°19'3 3.0
2017-Aug-11 13:30N 30°09' W 093°20'2 4.5
2017-Aug-11 13:00N 30°11' W 093°19'2 5.0
2017-Aug-11 12:30N 30°12' W 093°16'2 3.3
2017-Aug-11 12:00N 30°14' W 093°16'0 0.1
2017-Aug-11 11:30N 30°14' W 093°15'0 0.0
2017-Aug-11 11:00N 30°14' W 093°15'0 0.0
2017-Aug-11 10:26N 30°14' W 093°15'0 0.0
2017-Aug-11 10:00N 30°14' W 093°15'0 0.0
2017-Aug-11 09:26N 30°14' W 093°15'0 0.0
2017-Aug-11 09:00N 30°14' W 093°15'0 0.0
2017-Aug-11 08:27N 30°14' W 093°15'0 0.0
2017-Aug-11 08:00N 30°14' W 093°15'0 0.0
2017-Aug-11 07:20N 30°14' W 093°15'0 0.0
2017-Aug-11 06:59N 30°14' W 093°15'0 0.0
2017-Aug-11 06:27N 30°14' W 093°15'0 0.0
2017-Aug-11 05:59N 30°14' W 093°15'0 0.0
2017-Aug-11 05:29N 30°14' W 093°15'0 0.0
2017-Aug-11 04:56N 30°14' W 093°15'0 0.0
2017-Aug-11 04:29N 30°14' W 093°15'0 0.0
2017-Aug-11 03:57N 30°14' W 093°15'0 0.0
2017-Aug-11 03:26N 30°14' W 093°15'0 0.0
2017-Aug-11 02:56N 30°14' W 093°15'0 0.0
2017-Aug-11 02:26N 30°14' W 093°15'0 0.0
2017-Aug-11 01:59N 30°14' W 093°15'0 0.0
2017-Aug-11 01:26N 30°14' W 093°15'0 0.0
2017-Aug-11 00:59N 30°14' W 093°15'0 0.0
2017-Aug-11 00:27N 30°14' W 093°15'0 0.0
2017-Aug-10 23:59N 30°14' W 093°15'0 0.0
2017-Aug-10 23:26N 30°14' W 093°15'0 0.0
2017-Aug-10 22:53N 30°14' W 093°15'0 0.0
2017-Aug-10 22:27N 30°14' W 093°15'0 0.0
2017-Aug-10 21:59N 30°14' W 093°15'0 0.0
2017-Aug-10 21:29N 30°14' W 093°15'0 0.0
2017-Aug-10 20:56N 30°14' W 093°15'0 0.0
2017-Aug-10 20:26N 30°14' W 093°15'0 0.0
2017-Aug-10 19:56N 30°14' W 093°15'0 0.0
2017-Aug-10 19:26N 30°14' W 093°15'0 0.0
2017-Aug-10 18:56N 30°14' W 093°15'0 0.0
2017-Aug-10 18:26N 30°14' W 093°15'0 0.0
2017-Aug-10 17:56N 30°14' W 093°15'0 0.0
2017-Aug-10 17:14N 30°14' W 093°15'0 0.0
2017-Aug-10 16:56N 30°14' W 093°15'0 0.0
2017-Aug-10 16:26N 30°14' W 093°15'0 0.0
2017-Aug-10 15:59N 30°14' W 093°15'0 0.0
2017-Aug-10 15:26N 30°14' W 093°15'0 0.0
2017-Aug-10 14:56N 30°14' W 093°15'0 0.0
2017-Aug-10 14:20N 30°14' W 093°15'0 0.0
2017-Aug-10 13:56N 30°14' W 093°15'0 0.0
2017-Aug-10 13:29N 30°14' W 093°15'0 0.0
2017-Aug-10 12:56N 30°14' W 093°15'0 0.0
2017-Aug-10 12:29N 30°14' W 093°15'0 0.0
2017-Aug-10 11:59N 30°14' W 093°15'0 0.0
2017-Aug-10 11:26N 30°14' W 093°15'0 0.0
2017-Aug-10 10:56N 30°14' W 093°15'0 0.0
2017-Aug-10 10:29N 30°14' W 093°15'0 0.0
2017-Aug-10 09:56N 30°14' W 093°15'0 0.0
2017-Aug-10 09:29N 30°14' W 093°16'0 0.0
2017-Aug-10 08:56N 30°14' W 093°15'0 0.0
2017-Aug-10 08:26N 30°14' W 093°15'0 0.0
2017-Aug-10 07:59N 30°14' W 093°15'0 0.0
2017-Aug-10 07:11N 30°14' W 093°15'0 0.0
2017-Aug-10 06:56N 30°14' W 093°15'0 0.0
2017-Aug-10 06:20N 30°14' W 093°15'0 0.0
2017-Aug-10 05:56N 30°14' W 093°15'0 0.0
2017-Aug-10 05:23N 30°14' W 093°15'0 0.0
2017-Aug-10 04:59N 30°14' W 093°15'0 0.0
2017-Aug-10 04:29N 30°14' W 093°15'0 0.0
2017-Aug-10 03:59N 30°14' W 093°15'0 0.0
2017-Aug-10 03:29N 30°14' W 093°15'0 0.8
2017-Aug-10 02:59N 30°14' W 093°16'0 0.4
2017-Aug-10 02:29N 30°13' W 093°16'0 0.0
2017-Aug-10 01:59N 30°13' W 093°16'0 0.0
2017-Aug-10 01:29N 30°13' W 093°16'0 0.0
2017-Aug-10 00:59N 30°13' W 093°16'0 0.0
2017-Aug-10 00:29N 30°13' W 093°16'0 0.0
2017-Aug-09 23:59N 30°13' W 093°16'0 0.0
2017-Aug-09 23:29N 30°13' W 093°16'0 0.0
2017-Aug-09 22:59N 30°13' W 093°16'0 0.0
2017-Aug-09 22:29N 30°13' W 093°16'0 0.0
2017-Aug-09 21:59N 30°13' W 093°16'0 0.0
2017-Aug-09 21:29N 30°13' W 093°16'0 0.0
2017-Aug-09 20:59N 30°13' W 093°16'0 0.0
2017-Aug-09 20:29N 30°13' W 093°16'0 0.0
2017-Aug-09 19:59N 30°13' W 093°16'0 0.0
2017-Aug-09 19:29N 30°13' W 093°16'0 0.0
2017-Aug-09 18:59N 30°13' W 093°16'0 0.0
2017-Aug-09 18:29N 30°13' W 093°16'0 0.0
2017-Aug-09 17:59N 30°13' W 093°16'0 0.0
2017-Aug-09 17:29N 30°13' W 093°16'0 0.2
2017-Aug-09 16:56N 30°13' W 093°16'1 1.3
2017-Aug-09 16:30N 30°14' W 093°15'1 3.0
2017-Aug-09 16:00N 30°12' W 093°16'2 3.1
2017-Aug-09 15:29N 30°12' W 093°18'0 0.3
2017-Aug-09 14:59N 30°12' W 093°18'1 2.9
2017-Aug-09 14:30N 30°11' W 093°19'3 5.8
2017-Aug-09 14:00N 30°08' W 093°20'3 5.6
2017-Aug-09 13:30N 30°05' W 093°20'2 3.7
2017-Aug-09 13:00N 30°04' W 093°21'2 3.4
2017-Aug-09 12:30N 30°04' W 093°23'2 4.2
2017-Aug-09 12:00N 30°04' W 093°26'2 3.4
2017-Aug-09 11:29N 30°04' W 093°28'2 4.6
2017-Aug-09 11:00N 30°04' W 093°30'2 4.3
2017-Aug-09 10:30N 30°04' W 093°33'2 4.6
2017-Aug-09 10:00N 30°04' W 093°35'2 4.4
2017-Aug-09 09:30N 30°04' W 093°38'2 4.2
2017-Aug-09 08:58N 30°04' W 093°40'2 4.2
2017-Aug-09 08:30N 30°03' W 093°43'69 3.8
2017-Aug-08 14:31N 29°28' W 094°51'1 6.9
2017-Aug-08 14:20N 29°29' W 094°52'2 7.0
2017-Aug-08 14:00N 29°31' W 094°53'  

Dump ship's entire track history